Time;durP1;ratioP1;P1;durP2;ratioP2;P2;SDS_P1;SDS_P2;PMS_P1;PMS_P2;Temp;Humidity;BMP_temperature;BMP_pressure;BME280_temperature;BME280_humidity;BME280_pressure;Samples;Min_cycle;Max_cycle;Signal;HPM_P1;HPM_P2
2021/09/22 00:01:09;;;;;;;3.75;1.00;;;;;;;;;;5074936;28;20008;-65
2021/09/22 00:03:36;;;;;;;2.22;0.32;;;;;;;;;;5078293;28;20228;-66
2021/09/22 00:06:03;;;;;;;2.15;0.60;;;;;;;;;;5076983;28;20009;-65
2021/09/22 00:08:31;;;;;;;3.40;0.90;;;;;;;;;;5082384;28;20046;-65
2021/09/22 00:10:59;;;;;;;1.67;0.38;;;;;;;;;;5090035;28;20004;-65
2021/09/22 00:13:26;;;;;;;3.03;0.70;;;;;;;;;;5090199;28;20096;-65
2021/09/22 00:15:54;;;;;;;1.55;0.50;;;;;;;;;;5091784;28;20050;-65
2021/09/22 00:18:21;;;;;;;1.35;0.68;;;;;;;;;;5089903;28;20023;-66
2021/09/22 00:20:48;;;;;;;1.85;0.60;;;;;;;;;;5074066;28;20033;-66
2021/09/22 00:23:15;;;;;;;0.93;0.30;;;;;;;;;;5077926;28;20035;-66
2021/09/22 00:25:43;;;;;;;3.13;0.30;;;;;;;;;;5078509;28;20020;-65
2021/09/22 00:28:10;;;;;;;3.45;0.45;;;;;;;;;;5079734;28;20008;-65
2021/09/22 00:30:37;;;;;;;1.75;0.40;;;;;;;;;;5078680;28;20040;-65
2021/09/22 00:33:06;;;;;;;4.93;0.88;;;;;;;;;;5081795;28;20029;-66
2021/09/22 00:35:34;;;;;;;2.13;0.45;;;;;;;;;;5098785;28;20063;-65
2021/09/22 00:38:02;;;;;;;4.03;0.70;;;;;;;;;;5096936;28;20016;-65
2021/09/22 00:40:29;;;;;;;2.92;0.60;;;;;;;;;;5097976;28;20043;-66
2021/09/22 00:42:56;;;;;;;2.58;0.80;;;;;;;;;;5094655;28;20032;-65
2021/09/22 00:45:23;;;;;;;4.00;0.75;;;;;;;;;;5078544;28;20021;-65
2021/09/22 00:47:50;;;;;;;2.38;0.57;;;;;;;;;;5079018;28;20037;-65
2021/09/22 00:50:18;;;;;;;4.40;0.95;;;;;;;;;;5098414;28;20016;-66
2021/09/22 00:52:45;;;;;;;1.92;0.57;;;;;;;;;;5073361;28;20033;-66
2021/09/22 00:55:13;;;;;;;4.82;1.17;;;;;;;;;;5064999;28;20087;-67
2021/09/22 00:57:59;;;;;;;3.45;0.50;;;;;;;;;;5058563;28;20044;-67
2021/09/22 01:00:27;;;;;;;5.13;0.75;;;;;;;;;;5061610;28;20024;-66
2021/09/22 01:02:55;;;;;;;6.50;0.82;;;;;;;;;;5068187;28;20500;-66
2021/09/22 01:05:28;;;;;;;3.22;0.40;;;;;;;;;;5053515;28;20435;-67
2021/09/22 01:07:55;;;;;;;3.38;0.57;;;;;;;;;;5055587;28;20021;-66
2021/09/22 01:10:22;;;;;;;6.05;0.70;;;;;;;;;;5064741;28;20431;-66
2021/09/22 01:12:49;;;;;;;8.35;1.30;;;;;;;;;;5063600;28;20028;-66
2021/09/22 01:15:31;;;;;;;4.40;0.70;;;;;;;;;;5057060;28;20060;-66
2021/09/22 01:17:59;;;;;;;4.10;0.57;;;;;;;;;;5069629;28;20029;-62
2021/09/22 01:20:28;;;;;;;4.03;0.77;;;;;;;;;;5081693;28;20021;-66
2021/09/22 01:23:00;;;;;;;1.65;0.70;;;;;;;;;;5083520;28;20044;-65
2021/09/22 01:25:27;;;;;;;2.75;0.65;;;;;;;;;;5082284;28;20059;-66
2021/09/22 01:27:56;;;;;;;4.05;0.70;;;;;;;;;;5082446;28;20051;-67
2021/09/22 01:30:23;;;;;;;5.55;1.15;;;;;;;;;;5080033;28;20028;-65
2021/09/22 01:32:56;;;;;;;2.63;0.38;;;;;;;;;;5083380;28;20013;-66
2021/09/22 01:35:24;;;;;;;4.38;0.55;;;;;;;;;;5082457;28;20009;-66
2021/09/22 01:37:51;;;;;;;1.15;0.40;;;;;;;;;;5083566;28;20029;-66
2021/09/22 01:40:19;;;;;;;2.55;0.45;;;;;;;;;;5086035;28;20044;-65
2021/09/22 01:42:47;;;;;;;2.35;0.57;;;;;;;;;;5084958;28;20037;-66
2021/09/22 01:45:15;;;;;;;2.00;0.47;;;;;;;;;;5080629;28;20021;-66
2021/09/22 01:47:42;;;;;;;1.83;0.30;;;;;;;;;;5084701;28;20012;-65
2021/09/22 01:50:19;;;;;;;2.50;0.30;;;;;;;;;;5078820;28;20017;-65
2021/09/22 01:52:49;;;;;;;2.40;0.40;;;;;;;;;;5079835;28;20040;-66
2021/09/22 01:55:16;;;;;;;3.75;0.40;;;;;;;;;;5081225;28;20059;-66
2021/09/22 01:57:43;;;;;;;3.65;0.50;;;;;;;;;;5080306;28;20043;-65
2021/09/22 02:00:11;;;;;;;0.38;0.20;;;;;;;;;;5084482;28;20774;-66
2021/09/22 02:02:38;;;;;;;3.78;0.55;;;;;;;;;;5085973;28;20024;-66
2021/09/22 02:05:05;;;;;;;7.47;0.65;;;;;;;;;;5087584;28;20020;-66
2021/09/22 02:07:32;;;;;;;2.33;0.45;;;;;;;;;;5079563;28;20017;-66
2021/09/22 02:10:00;;;;;;;2.72;0.55;;;;;;;;;;5081782;28;20032;-65
2021/09/22 02:12:27;;;;;;;5.70;0.68;;;;;;;;;;5084099;28;20055;-66
2021/09/22 02:14:55;;;;;;;2.80;0.40;;;;;;;;;;5079341;28;20032;-66
2021/09/22 02:17:23;;;;;;;1.83;0.30;;;;;;;;;;5084607;28;20047;-66
2021/09/22 02:19:50;;;;;;;1.67;0.45;;;;;;;;;;5073009;28;20028;-67
2021/09/22 02:22:17;;;;;;;13.05;0.80;;;;;;;;;;5062612;28;20053;-66
2021/09/22 02:24:45;;;;;;;4.70;0.60;;;;;;;;;;5084574;28;20033;-68
2021/09/22 02:27:13;;;;;;;5.57;0.57;;;;;;;;;;5076668;28;20395;-68
2021/09/22 02:29:40;;;;;;;4.07;0.55;;;;;;;;;;5075868;28;20005;-67
2021/09/22 02:32:08;;;;;;;3.63;0.75;;;;;;;;;;5072569;28;20048;-67
2021/09/22 02:34:35;;;;;;;6.38;0.70;;;;;;;;;;5075133;28;20020;-67
2021/09/22 02:37:02;;;;;;;4.68;1.20;;;;;;;;;;5081722;28;20040;-67
2021/09/22 02:39:30;;;;;;;29.25;1.52;;;;;;;;;;5078101;28;20052;-67
2021/09/22 02:41:57;;;;;;;6.70;1.35;;;;;;;;;;5079312;28;20016;-67
2021/09/22 02:44:25;;;;;;;5.68;0.63;;;;;;;;;;5079744;28;20021;-67
2021/09/22 02:46:52;;;;;;;4.70;0.50;;;;;;;;;;5081500;28;20044;-67
2021/09/22 02:49:22;;;;;;;6.03;0.50;;;;;;;;;;5081629;28;20069;-66
2021/09/22 02:51:49;;;;;;;5.50;1.05;;;;;;;;;;5089972;28;20025;-67
2021/09/22 02:54:16;;;;;;;4.45;0.70;;;;;;;;;;5077918;28;20044;-67
2021/09/22 02:56:44;;;;;;;3.58;0.80;;;;;;;;;;5086061;28;20017;-66
2021/09/22 02:59:11;;;;;;;5.10;0.85;;;;;;;;;;5076596;28;20040;-67
2021/09/22 03:01:38;;;;;;;3.25;0.52;;;;;;;;;;5088272;28;20269;-67
2021/09/22 03:04:05;;;;;;;3.28;0.60;;;;;;;;;;5075276;28;20017;-66
2021/09/22 03:06:32;;;;;;;2.00;0.47;;;;;;;;;;5076174;28;20044;-68
2021/09/22 03:08:59;;;;;;;2.00;0.30;;;;;;;;;;5073441;28;20029;-67
2021/09/22 03:11:27;;;;;;;4.95;1.15;;;;;;;;;;5073589;28;20059;-68
2021/09/22 03:13:54;;;;;;;3.08;0.43;;;;;;;;;;5076396;28;20470;-67
2021/09/22 03:16:21;;;;;;;3.13;0.52;;;;;;;;;;5076245;28;20068;-68
2021/09/22 03:18:49;;;;;;;4.68;0.93;;;;;;;;;;5078990;28;20049;-68
2021/09/22 03:21:16;;;;;;;5.35;0.90;;;;;;;;;;5075575;28;20036;-67
2021/09/22 03:23:43;;;;;;;2.55;0.45;;;;;;;;;;5074604;28;20044;-67
2021/09/22 03:26:10;;;;;;;4.15;0.80;;;;;;;;;;5072450;28;20076;-68
2021/09/22 03:28:37;;;;;;;4.28;0.77;;;;;;;;;;5070929;28;20013;-67
2021/09/22 03:31:04;;;;;;;2.53;0.55;;;;;;;;;;5070480;28;20453;-68
2021/09/22 03:33:31;;;;;;;5.97;1.20;;;;;;;;;;5071077;28;20025;-68
2021/09/22 03:35:59;;;;;;;5.32;0.50;;;;;;;;;;5066891;28;20016;-68
2021/09/22 03:38:26;;;;;;;5.07;0.70;;;;;;;;;;5068998;28;20025;-67
2021/09/22 03:40:53;;;;;;;2.88;0.57;;;;;;;;;;5066226;28;20049;-67
2021/09/22 03:43:20;;;;;;;4.47;0.88;;;;;;;;;;5077181;28;20041;-67
2021/09/22 03:45:48;;;;;;;3.60;0.60;;;;;;;;;;5075724;28;20061;-68
2021/09/22 03:48:15;;;;;;;4.35;0.63;;;;;;;;;;5081838;28;20021;-67
2021/09/22 03:50:42;;;;;;;3.33;0.73;;;;;;;;;;5069328;28;20036;-67
2021/09/22 03:53:10;;;;;;;2.50;0.40;;;;;;;;;;5074461;28;20527;-67
2021/09/22 03:55:37;;;;;;;4.72;0.75;;;;;;;;;;5074767;28;20033;-66
2021/09/22 03:58:04;;;;;;;2.85;0.60;;;;;;;;;;5072912;28;20101;-66
2021/09/22 04:00:31;;;;;;;6.50;0.73;;;;;;;;;;5080552;28;20017;-66
2021/09/22 04:02:58;;;;;;;3.45;0.60;;;;;;;;;;5079080;28;20039;-66
2021/09/22 04:05:26;;;;;;;5.57;0.57;;;;;;;;;;5090434;28;20045;-68
2021/09/22 04:07:53;;;;;;;3.45;0.45;;;;;;;;;;5073465;28;20104;-67
2021/09/22 04:10:20;;;;;;;1.95;0.43;;;;;;;;;;5070216;28;20090;-67
2021/09/22 04:12:47;;;;;;;3.42;0.40;;;;;;;;;;5069029;28;20017;-67
2021/09/22 04:15:14;;;;;;;2.28;0.40;;;;;;;;;;5072616;28;20386;-66
2021/09/22 04:17:41;;;;;;;3.97;0.55;;;;;;;;;;5072035;28;20097;-66
2021/09/22 04:20:09;;;;;;;5.15;0.88;;;;;;;;;;5073721;28;20017;-66
2021/09/22 04:22:39;;;;;;;3.72;0.65;;;;;;;;;;5071447;28;20131;-66
2021/09/22 04:25:07;;;;;;;4.13;1.05;;;;;;;;;;5073184;28;20021;-66
2021/09/22 04:27:34;;;;;;;5.05;1.00;;;;;;;;;;5064070;28;20013;-66
2021/09/22 04:30:06;;;;;;;3.45;1.00;;;;;;;;;;5069031;28;20060;-66
2021/09/22 04:32:33;;;;;;;4.53;0.70;;;;;;;;;;5058521;28;20075;-67
2021/09/22 04:35:01;;;;;;;5.70;0.80;;;;;;;;;;5062381;28;20052;-67
2021/09/22 04:37:34;;;;;;;12.63;0.98;;;;;;;;;;5066496;28;20040;-67
2021/09/22 04:40:11;;;;;;;1.80;0.60;;;;;;;;;;5098686;27;20446;-67
2021/09/22 04:42:39;;;;;;;2.88;0.30;;;;;;;;;;5076189;28;20036;-67
2021/09/22 04:45:07;;;;;;;2.35;0.40;;;;;;;;;;5077083;28;20021;-66
2021/09/22 04:47:34;;;;;;;2.80;0.55;;;;;;;;;;5075158;28;20055;-66
2021/09/22 04:50:02;;;;;;;8.40;1.10;;;;;;;;;;5076338;28;20032;-67
2021/09/22 04:52:29;;;;;;;4.97;0.63;;;;;;;;;;5086902;28;20013;-66
2021/09/22 04:54:56;;;;;;;3.80;0.50;;;;;;;;;;5090814;28;20033;-66
2021/09/22 04:57:23;;;;;;;3.38;0.80;;;;;;;;;;5090951;28;20013;-64
2021/09/22 04:59:50;;;;;;;2.65;0.90;;;;;;;;;;5083931;28;20097;-65
2021/09/22 05:02:17;;;;;;;3.25;0.47;;;;;;;;;;5074759;28;20032;-65
2021/09/22 05:04:44;;;;;;;2.50;0.45;;;;;;;;;;5090654;28;20025;-65
2021/09/22 05:07:11;;;;;;;3.45;0.45;;;;;;;;;;5083474;28;20033;-65
2021/09/22 05:09:39;;;;;;;4.03;0.40;;;;;;;;;;5088133;28;20033;-65
2021/09/22 05:12:06;;;;;;;4.93;0.60;;;;;;;;;;5072386;28;20021;-65
2021/09/22 05:14:33;;;;;;;3.35;0.77;;;;;;;;;;5085903;28;20025;-65
2021/09/22 05:17:00;;;;;;;2.17;0.40;;;;;;;;;;5080569;28;20014;-65
2021/09/22 05:19:27;;;;;;;6.30;0.60;;;;;;;;;;5086652;28;20041;-65
2021/09/22 05:21:55;;;;;;;5.18;0.73;;;;;;;;;;5086868;28;20047;-64
2021/09/22 05:24:22;;;;;;;2.88;0.40;;;;;;;;;;5081937;28;20024;-65
2021/09/22 05:26:49;;;;;;;7.05;1.02;;;;;;;;;;5085896;28;20024;-65
2021/09/22 05:29:16;;;;;;;8.73;0.88;;;;;;;;;;5082661;28;20029;-65
2021/09/22 05:31:44;;;;;;;4.22;0.50;;;;;;;;;;5074590;28;20021;-66
2021/09/22 05:34:11;;;;;;;5.95;0.80;;;;;;;;;;5052635;28;20114;-66
2021/09/22 05:36:38;;;;;;;9.80;1.27;;;;;;;;;;5075720;28;20036;-67
2021/09/22 05:39:05;;;;;;;4.43;0.80;;;;;;;;;;5066554;28;20037;-67
2021/09/22 05:41:33;;;;;;;8.82;1.35;;;;;;;;;;5064119;28;20386;-67
2021/09/22 05:44:00;;;;;;;15.48;1.85;;;;;;;;;;5060598;28;20035;-67
2021/09/22 05:46:27;;;;;;;3.03;0.55;;;;;;;;;;5057283;28;20044;-67
2021/09/22 05:48:55;;;;;;;2.15;0.50;;;;;;;;;;5084171;28;20033;-63
2021/09/22 05:51:22;;;;;;;4.50;0.82;;;;;;;;;;5067514;28;20036;-63
2021/09/22 05:53:49;;;;;;;2.63;0.57;;;;;;;;;;5072939;28;20020;-63
2021/09/22 05:56:16;;;;;;;3.22;1.02;;;;;;;;;;5052481;28;20028;-68
2021/09/22 05:58:43;;;;;;;3.13;0.55;;;;;;;;;;5038442;28;20510;-68
2021/09/22 06:01:10;;;;;;;7.18;0.60;;;;;;;;;;5050039;28;20064;-68
2021/09/22 06:03:38;;;;;;;2.72;0.43;;;;;;;;;;5044444;28;20609;-68
2021/09/22 06:06:05;;;;;;;2.25;0.43;;;;;;;;;;5049088;28;20113;-66
2021/09/22 06:08:32;;;;;;;4.68;1.10;;;;;;;;;;5041415;28;20556;-67
2021/09/22 06:10:59;;;;;;;3.65;0.80;;;;;;;;;;5039262;28;20125;-67
2021/09/22 06:13:26;;;;;;;2.65;0.80;;;;;;;;;;5040354;28;20018;-66
2021/09/22 06:15:54;;;;;;;6.32;0.90;;;;;;;;;;5043399;28;20021;-67
2021/09/22 06:18:21;;;;;;;7.18;1.00;;;;;;;;;;5039335;28;20102;-66
2021/09/22 06:20:48;;;;;;;4.25;0.47;;;;;;;;;;5043069;28;20029;-67
2021/09/22 06:23:16;;;;;;;3.05;0.70;;;;;;;;;;5042461;28;20024;-66
2021/09/22 06:25:43;;;;;;;4.78;0.80;;;;;;;;;;5037991;28;20029;-66
2021/09/22 06:28:10;;;;;;;4.95;0.65;;;;;;;;;;5046968;28;20060;-65
2021/09/22 06:30:37;;;;;;;3.45;0.65;;;;;;;;;;5042070;28;20096;-66
2021/09/22 06:33:05;;;;;;;2.55;0.60;;;;;;;;;;5037839;28;20493;-66
2021/09/22 06:35:32;;;;;;;2.50;0.50;;;;;;;;;;5055171;28;20017;-65
2021/09/22 06:37:59;;;;;;;6.85;1.13;;;;;;;;;;5049256;28;20022;-66
2021/09/22 06:40:26;;;;;;;6.05;0.80;;;;;;;;;;5056753;28;20021;-66
2021/09/22 06:42:53;;;;;;;4.10;1.05;;;;;;;;;;5053521;28;20081;-66
2021/09/22 06:45:20;;;;;;;6.35;0.95;;;;;;;;;;5054059;28;20029;-65
2021/09/22 06:47:48;;;;;;;3.92;0.57;;;;;;;;;;5063434;28;20025;-66
2021/09/22 06:50:16;;;;;;;3.67;0.57;;;;;;;;;;5053537;28;20085;-66
2021/09/22 06:52:43;;;;;;;3.30;0.52;;;;;;;;;;5037835;28;20032;-65
2021/09/22 06:55:11;;;;;;;2.65;0.50;;;;;;;;;;5041978;28;20033;-66
2021/09/22 06:57:38;;;;;;;2.42;0.60;;;;;;;;;;5046404;28;20029;-67
2021/09/22 07:00:06;;;;;;;1.58;0.43;;;;;;;;;;5041818;28;20080;-66
2021/09/22 07:02:33;;;;;;;3.80;0.50;;;;;;;;;;5036272;28;20044;-65
2021/09/22 07:05:00;;;;;;;5.53;0.75;;;;;;;;;;5049742;28;20037;-66
2021/09/22 07:07:27;;;;;;;2.25;0.73;;;;;;;;;;5039725;28;20075;-65
2021/09/22 07:09:54;;;;;;;3.28;0.65;;;;;;;;;;5039244;28;20036;-65
2021/09/22 07:12:21;;;;;;;3.63;0.60;;;;;;;;;;5036886;28;20060;-66
2021/09/22 07:14:48;;;;;;;2.72;0.73;;;;;;;;;;5041204;28;20443;-66
2021/09/22 07:17:17;;;;;;;4.55;0.70;;;;;;;;;;5037178;28;20030;-66
2021/09/22 07:19:45;;;;;;;5.68;0.68;;;;;;;;;;5052673;28;20034;-65
2021/09/22 07:22:12;;;;;;;3.83;0.50;;;;;;;;;;5036264;28;20032;-67
2021/09/22 07:24:39;;;;;;;3.25;0.50;;;;;;;;;;5043064;28;20028;-67
2021/09/22 07:27:07;;;;;;;3.55;1.08;;;;;;;;;;5042245;28;20387;-66
2021/09/22 07:29:34;;;;;;;3.35;0.50;;;;;;;;;;5039907;28;20051;-67
2021/09/22 07:32:01;;;;;;;5.70;1.08;;;;;;;;;;5034370;28;20378;-66
2021/09/22 07:34:28;;;;;;;3.60;0.57;;;;;;;;;;5034358;28;20470;-67
2021/09/22 07:36:55;;;;;;;6.47;1.15;;;;;;;;;;5038033;28;20053;-67
2021/09/22 07:39:22;;;;;;;4.28;0.57;;;;;;;;;;5049221;28;20090;-66
2021/09/22 07:41:50;;;;;;;3.85;0.60;;;;;;;;;;5047941;28;20029;-65
2021/09/22 07:44:17;;;;;;;5.03;0.50;;;;;;;;;;5051500;28;20033;-66
2021/09/22 07:46:44;;;;;;;3.90;0.77;;;;;;;;;;5052353;28;20028;-66
2021/09/22 07:49:11;;;;;;;5.32;0.90;;;;;;;;;;5057385;28;20025;-66
2021/09/22 07:51:38;;;;;;;2.80;0.75;;;;;;;;;;5054265;28;20474;-65
2021/09/22 07:54:05;;;;;;;2.50;0.70;;;;;;;;;;5049460;28;20032;-66
2021/09/22 07:56:33;;;;;;;4.03;0.70;;;;;;;;;;5053654;28;20014;-65
2021/09/22 07:59:00;;;;;;;2.33;0.63;;;;;;;;;;5050110;28;20033;-65
2021/09/22 08:01:27;;;;;;;4.35;0.90;;;;;;;;;;5047625;28;20033;-65
2021/09/22 08:03:54;;;;;;;4.10;0.95;;;;;;;;;;5048520;28;20052;-66
2021/09/22 08:06:23;;;;;;;3.60;0.88;;;;;;;;;;5042160;28;20021;-66
2021/09/22 08:08:50;;;;;;;5.55;0.95;;;;;;;;;;5060382;28;20096;-66
2021/09/22 08:11:19;;;;;;;3.85;0.77;;;;;;;;;;5058781;28;20025;-65
2021/09/22 08:13:47;;;;;;;4.15;1.17;;;;;;;;;;5051762;28;20022;-66
2021/09/22 08:16:14;;;;;;;5.45;0.80;;;;;;;;;;5042420;28;20021;-65
2021/09/22 08:18:45;;;;;;;4.03;0.68;;;;;;;;;;5044861;28;20097;-65
2021/09/22 08:21:14;;;;;;;2.17;0.65;;;;;;;;;;5051004;28;20021;-65
2021/09/22 08:23:41;;;;;;;5.72;1.00;;;;;;;;;;5058318;28;20478;-67
2021/09/22 08:26:09;;;;;;;2.78;0.82;;;;;;;;;;5051972;28;20049;-65
2021/09/22 08:28:36;;;;;;;3.55;1.00;;;;;;;;;;5046130;28;20021;-65
2021/09/22 08:31:03;;;;;;;7.55;1.80;;;;;;;;;;5056986;28;20029;-65
2021/09/22 08:33:30;;;;;;;3.75;1.10;;;;;;;;;;5053380;28;20025;-67
2021/09/22 08:35:58;;;;;;;3.47;0.85;;;;;;;;;;5043867;28;20075;-65
2021/09/22 08:38:25;;;;;;;2.20;0.73;;;;;;;;;;5064463;28;20056;-66
2021/09/22 08:40:52;;;;;;;3.75;0.85;;;;;;;;;;5079534;28;20013;-65
2021/09/22 08:43:30;;;;;;;3.28;0.80;;;;;;;;;;5071015;28;20036;-66
2021/09/22 08:45:57;;;;;;;2.92;0.95;;;;;;;;;;5064167;28;20009;-65
2021/09/22 08:48:25;;;;;;;9.10;1.35;;;;;;;;;;5062174;28;20038;-65
2021/09/22 08:50:54;;;;;;;4.53;0.98;;;;;;;;;;5064884;28;20024;-65
2021/09/22 08:53:21;;;;;;;2.38;0.85;;;;;;;;;;5091521;28;20017;-66
2021/09/22 08:55:49;;;;;;;4.82;0.90;;;;;;;;;;5072691;28;20036;-66
2021/09/22 08:58:16;;;;;;;5.47;1.10;;;;;;;;;;5073836;28;20292;-66
2021/09/22 09:00:44;;;;;;;5.60;1.00;;;;;;;;;;5076059;28;20013;-66
2021/09/22 09:03:30;;;;;;;5.55;0.90;;;;;;;;;;5060192;28;20017;-66
2021/09/22 09:06:15;;;;;;;6.00;1.40;;;;;;;;;;5065399;28;20012;-66
2021/09/22 09:08:42;;;;;;;4.25;1.30;;;;;;;;;;5061780;28;20029;-66
2021/09/22 09:11:10;;;;;;;4.90;1.27;;;;;;;;;;5062870;28;20028;-66
2021/09/22 09:13:49;;;;;;;5.00;1.40;;;;;;;;;;5072076;28;20100;-66
2021/09/22 09:16:22;;;;;;;5.97;1.45;;;;;;;;;;5070195;28;20014;-66
2021/09/22 09:18:54;;;;;;;6.15;2.25;;;;;;;;;;5066103;28;20048;-66
2021/09/22 09:21:24;;;;;;;4.28;2.08;;;;;;;;;;5058269;28;20017;-66
2021/09/22 09:23:58;;;;;;;5.53;1.85;;;;;;;;;;5071581;28;20028;-66
2021/09/22 09:26:31;;;;;;;5.05;1.90;;;;;;;;;;5069039;28;20077;-66
2021/09/22 09:28:59;;;;;;;5.20;2.03;;;;;;;;;;5076423;28;20010;-66
2021/09/22 09:31:33;;;;;;;6.18;2.70;;;;;;;;;;5077776;28;20020;-66
2021/09/22 09:34:04;;;;;;;7.43;2.17;;;;;;;;;;5060842;28;20010;-66
2021/09/22 09:36:31;;;;;;;6.30;2.13;;;;;;;;;;5073168;28;20025;-66
2021/09/22 09:39:04;;;;;;;6.68;2.30;;;;;;;;;;5079127;28;20045;-64
2021/09/22 09:41:33;;;;;;;5.25;2.33;;;;;;;;;;5069365;28;20024;-66
2021/09/22 09:44:02;;;;;;;4.70;2.30;;;;;;;;;;5079141;28;20053;-66
2021/09/22 09:46:30;;;;;;;9.48;2.58;;;;;;;;;;5075771;28;20021;-66
2021/09/22 09:49:17;;;;;;;6.05;2.30;;;;;;;;;;5068881;28;20047;-66
2021/09/22 09:51:44;;;;;;;4.85;2.35;;;;;;;;;;5069324;28;20052;-66
2021/09/22 09:54:14;;;;;;;5.00;2.67;;;;;;;;;;5063440;28;21366;-65
2021/09/22 09:56:41;;;;;;;7.55;2.00;;;;;;;;;;5060470;28;20010;-66
2021/09/22 09:59:09;;;;;;;7.15;2.40;;;;;;;;;;5073103;28;20025;-65
2021/09/22 10:01:37;;;;;;;5.38;2.20;;;;;;;;;;5078058;28;20021;-66
2021/09/22 10:04:05;;;;;;;8.60;2.45;;;;;;;;;;5075309;28;20029;-66
2021/09/22 10:06:32;;;;;;;7.13;2.22;;;;;;;;;;5064761;28;20032;-66
2021/09/22 10:09:00;;;;;;;3.75;2.13;;;;;;;;;;5069189;28;20017;-66
2021/09/22 10:11:28;;;;;;;6.15;2.15;;;;;;;;;;5067823;28;20061;-65
2021/09/22 10:13:56;;;;;;;5.05;2.25;;;;;;;;;;5066519;28;20009;-66
2021/09/22 10:16:26;;;;;;;5.75;2.78;;;;;;;;;;5070086;28;20020;-66
2021/09/22 10:18:54;;;;;;;4.82;2.75;;;;;;;;;;5079813;28;20088;-66
2021/09/22 10:21:21;;;;;;;8.55;3.75;;;;;;;;;;5075122;28;20017;-66
2021/09/22 10:23:51;;;;;;;8.30;3.20;;;;;;;;;;5070079;28;20021;-66
2021/09/22 10:26:19;;;;;;;5.03;1.92;;;;;;;;;;5079139;28;20021;-66
2021/09/22 10:28:47;;;;;;;9.18;2.92;;;;;;;;;;5066752;28;20025;-66
2021/09/22 10:31:20;;;;;;;5.35;2.13;;;;;;;;;;5075912;28;20028;-65
2021/09/22 10:33:48;;;;;;;7.65;2.55;;;;;;;;;;5075875;28;20014;-66
2021/09/22 10:36:16;;;;;;;8.82;2.63;;;;;;;;;;5073754;28;20060;-65
2021/09/22 10:38:45;;;;;;;9.20;2.75;;;;;;;;;;5061367;28;20041;-66
2021/09/22 10:41:23;;;;;;;10.43;3.08;;;;;;;;;;5064107;28;20040;-66
2021/09/22 10:43:50;;;;;;;9.80;2.50;;;;;;;;;;5079479;28;20047;-65
2021/09/22 10:46:18;;;;;;;10.48;2.72;;;;;;;;;;5070067;28;20013;-66
2021/09/22 10:48:54;;;;;;;8.20;3.03;;;;;;;;;;5077567;28;20005;-66
2021/09/22 10:51:30;;;;;;;8.32;3.00;;;;;;;;;;5079316;28;20013;-66
2021/09/22 10:54:09;;;;;;;10.27;3.70;;;;;;;;;;5072114;28;20021;-66
2021/09/22 10:56:47;;;;;;;8.73;3.25;;;;;;;;;;5069506;28;20024;-65
2021/09/22 10:59:33;;;;;;;5.38;2.60;;;;;;;;;;5078579;28;20064;-66
2021/09/22 11:02:00;;;;;;;10.45;3.42;;;;;;;;;;5073288;28;20043;-66
2021/09/22 11:04:47;;;;;;;8.73;2.33;;;;;;;;;;5079034;28;20021;-66
2021/09/22 11:07:14;;;;;;;7.50;2.13;;;;;;;;;;5072620;28;20028;-66
2021/09/22 11:09:41;;;;;;;7.85;2.65;;;;;;;;;;5075239;28;20032;-66
2021/09/22 11:12:10;;;;;;;7.95;2.45;;;;;;;;;;5078804;28;20017;-65
2021/09/22 11:15:04;;;;;;;4.50;2.30;;;;;;;;;;5074957;28;20092;-65
2021/09/22 11:17:31;;;;;;;5.28;2.42;;;;;;;;;;5065942;28;20037;-66
2021/09/22 11:19:59;;;;;;;5.75;2.65;;;;;;;;;;5072809;28;20029;-65
2021/09/22 11:22:34;;;;;;;9.48;2.50;;;;;;;;;;5077640;28;20050;-65
2021/09/22 11:25:00;;;;;;;;;;;;;;;;;;5076375;28;20013;-66
2021/09/22 11:27:27;;;;;;;9.52;3.20;;;;;;;;;;5071333;28;19919;-66
2021/09/22 11:29:59;;;;;;;7.15;2.40;;;;;;;;;;5077866;28;20020;-66
2021/09/22 11:32:35;;;;;;;5.38;2.30;;;;;;;;;;5075781;28;20020;-66
2021/09/22 11:35:02;;;;;;;9.23;2.67;;;;;;;;;;5076940;28;20045;-66
2021/09/22 11:37:34;;;;;;;5.63;2.22;;;;;;;;;;5064996;28;20076;-66
2021/09/22 11:40:10;;;;;;;6.38;2.33;;;;;;;;;;5077704;28;20040;-66
2021/09/22 11:42:37;;;;;;;6.55;2.50;;;;;;;;;;5068689;28;20033;-66
2021/09/22 11:45:04;;;;;;;6.03;2.25;;;;;;;;;;5062492;28;20037;-66
2021/09/22 11:47:32;;;;;;;4.65;2.25;;;;;;;;;;5068144;28;20021;-66
2021/09/22 11:49:59;;;;;;;8.77;2.25;;;;;;;;;;5073950;28;20026;-66
2021/09/22 11:52:26;;;;;;;5.65;2.67;;;;;;;;;;5072596;28;20068;-66
2021/09/22 11:54:58;;;;;;;7.25;2.53;;;;;;;;;;5074872;28;20040;-66
2021/09/22 11:57:29;;;;;;;8.80;2.63;;;;;;;;;;5076155;28;20024;-66
2021/09/22 11:59:57;;;;;;;8.43;2.95;;;;;;;;;;5070365;28;20036;-66
2021/09/22 12:02:28;;;;;;;13.60;3.97;;;;;;;;;;5064283;28;20097;-66
2021/09/22 12:04:58;;;;;;;6.40;3.63;;;;;;;;;;5059732;28;20014;-65
2021/09/22 12:07:31;;;;;;;7.53;2.75;;;;;;;;;;5068729;28;20029;-65
2021/09/22 12:10:02;;;;;;;6.55;2.65;;;;;;;;;;5070431;28;20379;-66
2021/09/22 12:12:34;;;;;;;8.63;2.80;;;;;;;;;;5061064;28;20021;-66
2021/09/22 12:15:02;;;;;;;6.57;2.90;;;;;;;;;;5072480;28;20021;-66
2021/09/22 12:17:33;;;;;;;8.30;2.70;;;;;;;;;;5066086;28;20339;-66
2021/09/22 12:20:04;;;;;;;5.95;3.00;;;;;;;;;;5063937;28;20045;-66
2021/09/22 12:22:32;;;;;;;9.75;2.60;;;;;;;;;;5068286;28;20037;-66
2021/09/22 12:25:00;;;;;;;8.88;2.95;;;;;;;;;;5071938;28;20292;-66
2021/09/22 12:27:28;;;;;;;6.55;3.03;;;;;;;;;;5066429;28;20017;-66
2021/09/22 12:29:58;;;;;;;7.10;2.78;;;;;;;;;;5063820;28;20097;-66
2021/09/22 12:32:28;;;;;;;6.90;3.20;;;;;;;;;;5064794;28;20021;-66
2021/09/22 12:34:57;;;;;;;3.83;2.30;;;;;;;;;;5066322;28;20020;-66
2021/09/22 12:37:25;;;;;;;5.15;2.90;;;;;;;;;;5059094;28;20028;-66
2021/09/22 12:40:01;;;;;;;4.22;2.33;;;;;;;;;;5067225;28;20057;-66
2021/09/22 12:42:57;;;;;;;8.63;2.88;;;;;;;;;;5064334;28;20024;-66
2021/09/22 12:45:26;;;;;;;5.45;2.40;;;;;;;;;;5055913;28;20052;-66
2021/09/22 12:47:57;;;;;;;6.53;2.67;;;;;;;;;;5064008;28;20029;-66
2021/09/22 12:50:35;;;;;;;7.95;2.58;;;;;;;;;;5065729;28;20009;-66
2021/09/22 12:53:13;;;;;;;6.10;2.83;;;;;;;;;;5064927;28;20033;-66
2021/09/22 12:55:41;;;;;;;7.28;2.88;;;;;;;;;;5061034;28;20025;-66
2021/09/22 12:58:09;;;;;;;13.43;3.35;;;;;;;;;;5062341;28;20040;-66
2021/09/22 13:00:40;;;;;;;7.43;3.05;;;;;;;;;;5064339;28;20048;-64
2021/09/22 13:03:18;;;;;;;8.95;2.80;;;;;;;;;;5072399;28;20028;-64
2021/09/22 13:05:49;;;;;;;5.82;2.60;;;;;;;;;;5068003;28;20016;-65
2021/09/22 13:08:20;;;;;;;6.90;2.28;;;;;;;;;;5071026;28;20096;-65
2021/09/22 13:10:51;;;;;;;8.13;3.00;;;;;;;;;;5070646;28;20037;-65
2021/09/22 13:13:19;;;;;;;8.50;3.08;;;;;;;;;;5071905;28;20033;-65
2021/09/22 13:15:47;;;;;;;7.50;3.15;;;;;;;;;;5074475;28;20013;-65
2021/09/22 13:18:14;;;;;;;6.88;2.75;;;;;;;;;;5073964;28;20034;-65
2021/09/22 13:20:41;;;;;;;8.25;3.30;;;;;;;;;;5070980;28;20029;-65
2021/09/22 13:23:08;;;;;;;10.07;3.65;;;;;;;;;;5068502;28;20017;-65
2021/09/22 13:25:35;;;;;;;11.10;3.35;;;;;;;;;;5070889;28;20013;-64
2021/09/22 13:28:02;;;;;;;8.07;2.58;;;;;;;;;;5076936;28;20037;-64
2021/09/22 13:30:29;;;;;;;5.13;2.35;;;;;;;;;;5069459;28;20021;-64
2021/09/22 13:32:56;;;;;;;9.70;3.53;;;;;;;;;;5070228;28;20017;-64
2021/09/22 13:35:24;;;;;;;10.50;3.10;;;;;;;;;;5066672;28;20072;-64
2021/09/22 13:37:51;;;;;;;15.57;3.63;;;;;;;;;;5070497;28;20024;-65
2021/09/22 13:40:18;;;;;;;7.75;2.88;;;;;;;;;;5074047;28;20017;-65
2021/09/22 13:42:45;;;;;;;8.00;2.83;;;;;;;;;;5072533;28;20010;-65
2021/09/22 13:45:12;;;;;;;11.75;2.92;;;;;;;;;;5072616;28;20065;-65
2021/09/22 13:47:39;;;;;;;7.63;3.05;;;;;;;;;;5070825;28;20089;-64
2021/09/22 13:50:07;;;;;;;8.40;3.22;;;;;;;;;;5072763;28;20028;-65
2021/09/22 13:52:34;;;;;;;8.10;4.22;;;;;;;;;;5072785;28;20076;-65
2021/09/22 13:55:01;;;;;;;9.43;3.15;;;;;;;;;;5070673;28;20029;-65
2021/09/22 13:57:28;;;;;;;6.88;3.47;;;;;;;;;;5065949;28;20010;-65
2021/09/22 13:59:55;;;;;;;14.35;3.55;;;;;;;;;;5068614;28;20025;-66
2021/09/22 14:02:22;;;;;;;7.50;3.40;;;;;;;;;;5063728;28;20017;-65
2021/09/22 14:04:50;;;;;;;7.57;3.38;;;;;;;;;;5075751;28;20082;-65
2021/09/22 14:07:20;;;;;;;10.27;3.35;;;;;;;;;;5069835;28;20043;-65
2021/09/22 14:09:47;;;;;;;10.27;3.55;;;;;;;;;;5072408;28;20009;-65
2021/09/22 14:12:14;;;;;;;11.18;3.63;;;;;;;;;;5072761;28;20017;-65
2021/09/22 14:14:41;;;;;;;9.48;3.13;;;;;;;;;;5074972;28;20017;-65
2021/09/22 14:17:08;;;;;;;8.93;3.80;;;;;;;;;;5076397;28;20042;-65
2021/09/22 14:19:35;;;;;;;11.32;3.25;;;;;;;;;;5072733;28;20041;-65
2021/09/22 14:22:03;;;;;;;8.82;4.00;;;;;;;;;;5073769;28;20037;-65
2021/09/22 14:24:30;;;;;;;8.10;3.55;;;;;;;;;;5068931;28;20120;-64
2021/09/22 14:26:57;;;;;;;15.07;4.40;;;;;;;;;;5069262;28;20029;-65
2021/09/22 14:29:24;;;;;;;10.35;4.13;;;;;;;;;;5070350;28;20037;-65
2021/09/22 14:31:51;;;;;;;11.13;3.75;;;;;;;;;;5070019;28;20030;-65
2021/09/22 14:34:18;;;;;;;10.80;3.92;;;;;;;;;;5070473;28;20036;-65
2021/09/22 14:36:46;;;;;;;9.80;3.88;;;;;;;;;;5067457;28;20017;-65
2021/09/22 14:39:14;;;;;;;7.53;3.45;;;;;;;;;;5068972;28;20045;-65
2021/09/22 14:41:41;;;;;;;15.00;3.72;;;;;;;;;;5069998;28;20028;-65
2021/09/22 14:44:08;;;;;;;9.60;3.90;;;;;;;;;;5073952;28;20092;-65
2021/09/22 14:46:35;;;;;;;10.07;4.15;;;;;;;;;;5069216;28;20040;-65
2021/09/22 14:49:02;;;;;;;11.10;3.33;;;;;;;;;;5071384;28;20025;-64
2021/09/22 14:51:29;;;;;;;6.95;3.70;;;;;;;;;;5066405;28;20052;-64